Latest Weather Observations for Darwin Airport

IDD60901

Issued at 8:11 pm CST Tuesday 26 March 2019 (issued every 10 minutes, with the page automatically refreshed every 10 minutes)

About weather observations | Map of Darwin area stations | Latest observations for Darwin area | Other Formats
Station Details ID: 014015 Name: DARWIN AIRPORT Lat: -12.42 Lon: 130.89 Height: 30.4 m
Data from the previous 72 hours. | See also: Recent months at Darwin Airport
Date/Time
CST
Temp
°C
App
Temp
°C
Dew
Point
°C
Rel
Hum
%
Delta-T
°C
Wind Press
QNH
hPa
Press
MSL
hPa
Rain since
9am
mm
Dir  Spd
km/h
Gust
km/h
Spd
kts
Gust
kts
26/08:00pm 25.2 31.3 24.5 96 0.5 CALM 0 0 0 0 1010.2 1010.0 20.0
26/07:30pm 25.1 30.4 24.4 96 0.5 NNW 4 7 2 4 1010.2 1010.0 20.0
26/07:00pm 24.9 29.8 24.3 96 0.4 NNW 6 6 3 3 1010.2 1010.0 20.0
26/06:30pm 24.8 29.6 24.2 96 0.4 N 6 7 3 4 1010.1 1009.9 19.8
26/06:00pm 24.8 29.6 24.2 96 0.4 NNW 6 7 3 4 1009.8 1009.6 19.4
26/05:46pm 24.7 29.4 24.0 96 0.5 NNW 6 7 3 4 1009.8 1009.6 19.2
26/05:30pm 24.7 29.4 24.0 96 0.5 N 6 7 3 4 1009.7 1009.4 19.0
26/05:17pm 24.9 30.0 24.0 95 0.6 NE 4 7 2 4 1009.4 1009.1 18.6
26/05:00pm 24.8 29.4 23.8 94 0.7 SE 6 9 3 5 1008.9 1008.6 18.0
26/04:58pm 24.8 29.4 23.8 94 0.7 SSE 6 9 3 5 1008.8 1008.5 18.0
26/04:30pm 24.6 27.0 23.6 94 0.7 SSE 17 20 9 11 1008.6 1008.3 15.8
26/04:00pm 24.7 26.9 23.2 91 1.0 S 17 22 9 12 1008.8 1008.5 15.0
26/03:30pm 24.9 25.7 23.1 90 1.2 S 24 30 13 16 1008.8 1008.5 14.8
26/03:00pm 26.1 26.1 23.8 87 1.6 S 30 41 16 22 1009.7 1009.4 14.6
26/02:48pm 26.8 27.9 23.7 83 2.1 SSW 24 50 13 27 1009.6 1009.3 14.6
26/02:30pm 27.7 32.1 25.6 88 1.5 SW 13 20 7 11 1009.2 1008.9 14.6
26/02:00pm 28.1 31.0 24.5 81 2.5 W 17 24 9 13 1009.5 1009.2 14.4
26/01:30pm 28.1 30.6 24.8 82 2.3 WSW 20 26 11 14 1009.6 1009.3 14.4
26/01:00pm 28.6 32.6 23.8 75 3.3 SW 9 13 5 7 1009.9 1009.7 14.4
26/12:30pm 28.0 30.6 24.0 79 2.8 SW 17 22 9 12 1010.0 1009.8 14.4
26/12:09pm 26.9 29.6 25.0 89 1.3 WSW 20 30 11 16 1010.1 1009.9 14.4
26/12:00pm 26.6 28.9 25.0 91 1.1 WSW 22 28 12 15 1010.1 1009.9 14.4
26/11:41am 26.4 27.0 24.8 91 1.1 WSW 30 41 16 22 1010.9 1010.7 14.0
26/11:35am 26.4 27.4 24.7 90 1.2 WSW 28 43 15 23 1011.2 1011.0 14.0
26/11:30am 27.4 30.6 25.8 91 1.1 WSW 20 32 11 17 1011.2 1011.0 13.6
26/11:19am 27.8 31.5 26.3 91 1.1 WSW 19 26 10 14 1011.0 1010.8 9.6
26/11:00am 28.8 32.2 26.1 85 1.9 W 20 26 11 14 1010.8 1010.6 0.8
26/10:57am 30.4 33.2 25.3 74 3.6 WNW 20 26 11 14 1010.8 1010.6 0.0
26/10:30am 30.8 33.8 25.3 72 3.9 W 19 22 10 12 1010.8 1010.6 0.0
26/10:00am 30.6 34.1 24.9 71 4.0 W 15 22 8 12 1011.5 1011.3 0.0
26/09:30am 30.7 34.5 25.9 75 3.4 WSW 17 24 9 13 1011.2 1011.0 0.0
26/09:00am 29.8 34.0 25.9 79 2.8 W 15 20 8 11 1011.0 1010.8 0.2
26/08:30am 29.5 33.2 25.8 80 2.6 W 17 22 9 12 1010.8 1010.6 0.2
26/08:00am 29.2 33.4 26.0 83 2.3 W 15 20 8 11 1010.5 1010.3 0.2
26/07:30am 28.8 32.9 25.8 84 2.1 W 15 20 8 11 1010.5 1010.3 0.2
26/07:00am 28.4 33.4 26.0 87 1.7 W 11 19 6 10 1010.4 1010.2 0.2
26/06:30am 28.4 33.2 25.7 85 1.9 W 11 17 6 9 1010.1 1009.9 0.2
26/06:00am 28.5 32.8 25.5 84 2.1 W 13 17 7 9 1010.0 1009.8 0.2
26/05:30am 28.5 32.8 25.5 84 2.1 W 13 19 7 10 1009.7 1009.4 0.2
26/05:00am 28.5 33.4 25.8 85 1.9 W 11 17 6 9 1009.6 1009.3 0.2
26/04:30am 28.7 33.3 25.9 85 2.0 W 13 20 7 11 1009.6 1009.3 0.2
26/04:00am 28.8 32.5 25.8 84 2.1 W 17 26 9 14 1009.4 1009.1 0.2
26/03:30am 28.7 32.7 25.6 83 2.2 W 15 20 8 11 1009.4 1009.1 0.2
26/03:00am 28.7 32.7 25.6 83 2.2 W 15 19 8 10 1009.5 1009.2 0.2
26/02:30am 28.5 33.2 25.5 84 2.1 W 11 15 6 8 1009.4 1009.1 0.2
26/02:00am 28.5 33.6 25.5 84 2.1 W 9 11 5 6 1009.9 1009.7 0.2
26/01:30am 28.5 33.3 25.7 85 2.0 W 11 17 6 9 1010.2 1010.0 0.2
26/01:00am 28.5 33.8 25.8 85 1.9 W 9 11 5 6 1010.5 1010.3 0.2
26/12:30am 28.6 33.9 25.8 85 2.0 W 9 11 5 6 1010.5 1010.3 0.2
26/12:00am 28.5 33.7 25.7 85 2.0 W 9 15 5 8 1010.7 1010.5 0.2
 
Date/Time
CST
Temp
°C
App
Temp
°C
Dew
Point
°C
Rel
Hum
%
Delta-T
°C
Wind Press
QNH
hPa
Press
MSL
hPa
Rain since
9am
mm
Dir  Spd
km/h
Gust
km/h
Spd
kts
Gust
kts
25/11:30pm 28.3 33.8 25.6 85 1.9 W 7 9 4 5 1011.3 1011.1 0.2
25/11:00pm 28.3 34.2 25.9 87 1.7 WNW 6 9 3 5 1011.0 1010.8 0.2
25/10:30pm 28.7 34.2 25.6 83 2.2 SW 7 9 4 5 1011.0 1010.8 0.2
25/10:00pm 28.7 33.4 25.6 83 2.2 WSW 11 13 6 7 1010.9 1010.7 0.2
25/09:30pm 28.9 33.8 25.2 80 2.6 W 9 11 5 6 1010.5 1010.3 0.2
25/09:00pm 29.0 33.9 25.3 80 2.6 WSW 9 13 5 7 1010.6 1010.4 0.2
25/08:30pm 29.2 33.8 25.4 80 2.7 WSW 11 15 6 8 1010.3 1010.1 0.2
25/08:00pm 29.4 34.2 25.7 80 2.6 WSW 11 17 6 9 1009.9 1009.7 0.2
25/07:30pm 29.4 34.1 25.6 80 2.7 WSW 11 15 6 8 1009.2 1008.9 0.2
25/07:00pm 29.6 32.8 25.5 78 2.9 WSW 19 22 10 12 1008.9 1008.6 0.2
25/06:30pm 29.9 33.4 25.5 77 3.1 WSW 17 24 9 13 1008.6 1008.3 0.2
25/06:00pm 30.1 33.1 25.3 75 3.4 W 19 26 10 14 1008.2 1007.9 0.2
25/05:30pm 30.3 33.2 25.1 73 3.7 W 19 24 10 13 1007.9 1007.6 0.2
25/05:00pm 30.6 33.2 24.9 71 4.0 W 20 28 11 15 1007.9 1007.6 0.2
25/04:30pm 31.4 34.1 25.0 69 4.5 W 20 28 11 15 1007.8 1007.5 0.2
25/04:00pm 30.7 34.1 25.3 73 3.8 W 17 26 9 14 1008.0 1007.7 0.2
25/03:30pm 31.0 34.0 25.5 72 3.9 W 20 32 11 17 1008.2 1007.9 0.2
25/03:00pm 31.1 34.1 25.3 71 4.1 WSW 19 26 10 14 1008.1 1007.8 0.2
25/02:30pm 31.0 33.3 24.1 66 4.8 WSW 19 30 10 16 1008.1 1007.8 0.2
25/02:00pm 31.1 35.1 26.2 75 3.5 NW 17 26 9 14 1008.7 1008.4 0.2
25/01:30pm 31.2 34.6 25.9 73 3.8 NW 19 24 10 13 1009.1 1008.8 0.2
25/01:00pm 31.4 34.0 26.1 73 3.8 WNW 24 30 13 16 1009.6 1009.3 0.2
25/12:30pm 30.6 33.3 25.1 72 3.9 WNW 20 28 11 15 1010.0 1009.8 0.2
25/12:00pm 30.7 34.4 25.8 75 3.5 WNW 17 22 9 12 1010.4 1010.2 0.2
25/11:30am 30.4 34.0 26.2 78 3.0 WNW 19 26 10 14 1010.5 1010.3 0.2
25/11:00am 30.0 34.5 25.8 78 3.0 W 13 17 7 9 1010.8 1010.6 0.0
25/10:30am 30.0 34.4 25.6 77 3.1 WNW 13 19 7 10 1010.9 1010.7 0.0
25/10:00am 30.0 36.3 26.5 81 2.5 W 6 9 3 5 1010.8 1010.6 0.0
25/09:30am 29.4 36.7 26.8 86 1.9 NW 2 6 1 3 1010.9 1010.7 0.0
25/09:00am 29.2 35.4 26.7 86 1.8 SW 7 11 4 6 1010.6 1010.4 35.6
25/08:30am 28.6 34.7 26.5 88 1.5 WSW 7 9 4 5 1010.4 1010.2 35.6
25/08:00am 27.6 33.1 25.3 87 1.6 WSW 6 9 3 5 1010.0 1009.8 35.6
25/07:30am 26.3 28.9 24.6 90 1.2 W 19 24 10 13 1009.8 1009.6 35.4
25/07:13am 28.3 32.7 26.3 89 1.4 W 15 26 8 14 1009.5 1009.2 32.0
25/07:11am 28.3 33.1 26.3 89 1.4 WNW 13 22 7 12 1009.4 1009.1 32.0
25/07:00am 28.0 33.1 26.2 90 1.3 W 11 15 6 8 1009.5 1009.2 32.0
25/06:30am 27.8 32.3 25.8 89 1.4 W 13 15 7 8 1009.2 1008.9 32.0
25/06:00am 27.7 32.5 25.7 89 1.4 W 11 15 6 8 1008.8 1008.5 32.0
25/05:30am 27.8 32.1 25.5 87 1.6 W 13 19 7 10 1008.3 1008.0 32.0
25/05:00am 27.7 31.7 25.1 86 1.8 W 13 19 7 10 1007.7 1007.4 32.0
25/04:30am 27.8 31.7 24.9 84 2.0 W 13 19 7 10 1007.4 1007.1 32.0
25/04:00am 28.1 31.1 24.7 82 2.4 W 17 24 9 13 1007.5 1007.2 32.0
25/03:30am 28.2 30.5 24.5 80 2.6 W 20 32 11 17 1007.4 1007.1 32.0
25/03:00am 28.1 30.0 24.4 80 2.6 W 22 33 12 18 1007.4 1007.1 32.0
25/02:30am 27.8 29.5 24.0 80 2.6 W 22 30 12 16 1007.8 1007.5 32.0
25/02:00am 27.8 29.7 23.7 78 2.8 W 20 30 11 16 1008.3 1008.0 32.0
25/01:30am 27.8 30.2 24.2 81 2.5 W 19 26 10 14 1009.0 1008.7 32.0
25/01:00am 27.9 28.7 23.8 78 2.8 WNW 26 35 14 19 1009.4 1009.1 32.0
25/12:30am 28.1 29.1 24.1 79 2.8 W 26 37 14 20 1009.7 1009.4 32.0
25/12:00am 27.8 29.8 24.0 80 2.6 WNW 20 30 11 16 1009.9 1009.7 32.0
 
Date/Time
CST
Temp
°C
App
Temp
°C
Dew
Point
°C
Rel
Hum
%
Delta-T
°C
Wind Press
QNH
hPa
Press
MSL
hPa
Rain since
9am
mm
Dir  Spd
km/h
Gust
km/h
Spd
kts
Gust
kts
24/11:30pm 27.8 29.7 23.7 78 2.8 W 20 30 11 16 1009.6 1009.3 32.0
24/11:00pm 27.3 29.5 24.3 84 2.1 WNW 20 28 11 15 1009.2 1008.9 32.0
24/10:30pm 27.4 28.3 23.3 78 2.8 WNW 24 33 13 18 1009.0 1008.7 32.0
24/10:00pm 27.1 27.5 23.1 79 2.7 WNW 26 35 14 19 1009.1 1008.8 32.0
24/09:30pm 26.7 27.7 24.2 86 1.7 WNW 26 33 14 18 1009.3 1009.0 32.0
24/09:00pm 26.7 27.9 23.9 84 1.9 WNW 24 32 13 17 1008.7 1008.4 32.0
24/08:30pm 26.4 27.7 24.1 87 1.6 W 24 32 13 17 1008.5 1008.2 32.0
24/08:00pm 26.1 27.4 23.3 84 1.9 W 22 33 12 18 1008.5 1008.2 32.0
24/07:30pm 25.8 28.0 23.9 89 1.3 W 19 26 10 14 1008.0 1007.7 32.0
24/07:00pm 25.8 27.5 24.1 90 1.2 W 22 32 12 17 1007.9 1007.6 32.0
24/06:30pm 26.0 28.0 24.6 92 1.0 W 22 30 12 16 1007.8 1007.5 32.0
24/06:25pm 26.0 27.9 24.4 91 1.1 WNW 22 30 12 16 1007.7 1007.4 32.0
24/06:00pm 26.1 28.6 24.7 92 1.0 WNW 20 28 11 15 1007.4 1007.1 31.8
24/05:30pm 25.8 29.8 24.4 92 1.0 NNW 11 13 6 7 1007.5 1007.2 31.6
24/05:00pm 25.7 29.5 24.0 90 1.2 NW 11 15 6 8 1007.4 1007.1 31.6
24/04:30pm 25.1 28.7 23.8 92 0.9 W 11 15 6 8 1007.4 1007.1 31.6
24/04:00pm 24.7 27.7 23.4 92 0.9 W 13 19 7 10 1007.4 1007.1 31.2
24/03:30pm 25.8 28.3 24.8 94 0.7 WNW 20 32 11 17 1007.7 1007.4 30.6
24/03:23pm 25.8 29.3 24.9 95 0.6 NW 15 20 8 11 1007.5 1007.2 30.2
24/03:14pm 25.7 30.1 24.5 93 0.8 W 9 15 5 8 1007.2 1006.9 29.6
24/03:00pm 24.6 25.5 23.4 93 0.8 S 24 35 13 19 1007.5 1007.2 23.0
24/02:51pm 24.4 26.5 23.7 96 0.5 S 19 32 10 17 1008.0 1007.7 11.0
24/02:48pm 24.2 26.4 23.3 95 0.6 SSE 17 24 9 13 1007.8 1007.5 7.4
24/02:45pm 24.1 26.2 23.1 94 0.7 SSE 17 24 9 13 1007.5 1007.2 4.2
24/02:38pm 24.8 26.4 23.2 91 1.1 S 20 28 11 15 1007.2 1006.9 3.2
24/02:30pm 26.2 27.5 24.0 88 1.5 WNW 24 32 13 17 1007.2 1006.9 1.4
24/02:20pm 28.8 31.4 26.1 85 1.9 WNW 24 33 13 18 1006.6 1006.3 0.4
24/02:14pm 29.9 32.5 26.1 80 2.7 WNW 24 33 13 18 1006.6 1006.3 0.0
24/02:00pm 30.6 32.4 26.1 77 3.2 WNW 28 39 15 21 1006.8 1006.5 0.0
24/01:30pm 30.7 32.9 26.1 76 3.3 WNW 26 35 14 19 1007.2 1006.9 0.0
24/01:00pm 29.9 32.1 26.0 79 2.8 WNW 26 35 14 19 1007.7 1007.4 0.0
24/12:56pm 29.8 32.3 25.9 79 2.8 WNW 24 30 13 16 1007.8 1007.5 0.0
24/12:30pm 29.3 31.8 25.9 82 2.4 WNW 24 30 13 16 1008.3 1008.0 0.0
24/12:00pm 29.2 32.0 25.8 82 2.4 WNW 22 28 12 15 1008.5 1008.2 0.0
24/11:30am 28.7 31.7 25.3 82 2.4 WNW 19 26 10 14 1008.8 1008.5 0.0
24/11:00am 28.6 30.9 25.0 81 2.5 WNW 22 28 12 15 1008.7 1008.4 0.0
24/10:30am 28.4 30.0 24.5 79 2.7 WNW 24 30 13 16 1008.8 1008.5 0.0
24/10:00am 28.1 29.7 24.5 81 2.5 WNW 24 35 13 19 1008.7 1008.4 0.0
24/09:30am 27.8 30.0 25.5 87 1.6 WNW 24 32 13 17 1008.8 1008.5 0.0
24/09:00am 27.3 30.4 25.7 91 1.1 NW 20 28 11 15 1008.6 1008.3 15.0
24/08:30am 26.9 30.3 25.8 94 0.8 NW 19 26 10 14 1008.3 1008.0 14.8
24/08:00am 26.7 30.5 25.3 92 1.0 WNW 15 20 8 11 1007.7 1007.4 13.6
24/07:30am 26.6 29.3 24.7 89 1.3 WNW 19 24 10 13 1006.9 1006.6 13.2
24/07:00am 26.3 28.1 24.3 89 1.4 WNW 22 30 12 16 1006.7 1006.4 12.6
24/06:30am 26.0 27.5 23.7 87 1.6 WNW 22 33 12 18 1006.7 1006.4 12.6
24/06:00am 25.2 25.9 23.0 87 1.5 W 24 35 13 19 1006.5 1006.2 12.6
24/05:30am 24.6 25.2 22.8 90 1.2 W 24 33 13 18 1005.9 1005.6 12.6
24/05:15am 24.4 23.9 22.2 87 1.5 WNW 28 41 15 22 1005.8 1005.5 12.6
24/05:00am 24.6 23.4 22.2 86 1.6 W 32 43 17 23 1005.8 1005.5 12.6
24/04:45am 27.2 27.5 24.8 87 1.7 WNW 32 50 17 27 1005.3 1005.0 12.6
24/04:42am 27.1 28.1 24.7 87 1.7 WNW 28 50 15 27 1005.4 1005.1 12.6
24/04:30am 26.8 27.2 24.5 87 1.6 NW 30 37 16 20 1005.1 1004.8 12.6
24/04:25am 26.8 27.8 24.8 89 1.4 NW 28 37 15 20 1005.2 1004.9 12.6
24/04:00am 25.9 25.1 24.0 89 1.3 NW 35 46 19 25 1005.7 1005.4 12.6
24/03:30am 26.4 27.4 24.2 88 1.5 NW 26 35 14 19 1005.8 1005.5 12.6
24/03:25am 26.6 27.4 24.4 88 1.5 NW 28 35 15 19 1005.7 1005.4 12.6
24/03:00am 26.7 25.8 23.9 84 1.9 WNW 35 52 19 28 1006.2 1005.9 12.4
24/02:56am 27.3 28.0 24.9 87 1.7 WNW 30 48 16 26 1006.5 1006.2 12.4
24/02:30am 28.0 29.0 24.7 82 2.3 WNW 28 39 15 21 1006.4 1006.1 12.4
24/02:00am 27.8 28.1 24.8 84 2.1 WNW 32 46 17 25 1006.5 1006.2 12.4
24/01:56am 28.2 28.8 25.4 85 2.0 WNW 32 46 17 25 1006.5 1006.2 12.4
24/01:30am 28.2 31.6 26.1 88 1.5 WNW 20 26 11 14 1006.4 1006.1 12.4
24/01:00am 27.6 30.2 24.0 81 2.5 W 17 20 9 11 1005.9 1005.6 12.4
24/12:30am 27.5 29.5 23.9 81 2.5 W 20 28 11 15 1006.2 1005.9 12.4
24/12:00am 27.4 28.8 23.5 79 2.7 W 22 32 12 17 1006.0 1005.7 12.4
 
Date/Time
CST
Temp
°C
App
Temp
°C
Dew
Point
°C
Rel
Hum
%
Delta-T
°C
Wind Press
QNH
hPa
Press
MSL
hPa
Rain since
9am
mm
Dir  Spd
km/h
Gust
km/h
Spd
kts
Gust
kts
23/11:30pm 27.5 27.9 23.7 80 2.6 W 28 41 15 22 1006.6 1006.3 12.4
23/11:00pm 27.0 26.0 22.6 77 3.0 WNW 32 44 17 24 1007.4 1007.1 12.4
23/10:30pm 27.5 27.0 22.8 75 3.2 NW 30 41 16 22 1007.7 1007.4 12.4
23/10:00pm 27.7 28.0 22.9 75 3.3 WNW 26 37 14 20 1007.7 1007.4 12.4
23/09:30pm 26.1 27.0 23.9 88 1.5 WNW 26 35 14 19 1007.3 1007.0 12.4
23/09:06pm 26.4 26.5 23.9 86 1.7 WNW 30 48 16 26 1007.0 1006.7 12.4
23/09:00pm 26.4 26.3 24.2 88 1.5 WNW 32 48 17 26 1007.1 1006.8 12.4
23/08:56pm 26.7 26.3 23.0 80 2.5 NW 30 48 16 26 1007.1 1006.8 12.4
23/08:30pm 26.2 27.1 23.4 84 1.9 W 24 37 13 20 1006.4 1006.1 12.4
23/08:20pm 26.5 26.6 24.0 86 1.7 WSW 30 43 16 23 1006.0 1005.7 12.4

Latest Capital City Observations: Canberra | Sydney | Melbourne | Brisbane | Adelaide | Perth | Hobart | Darwin

Other formats

Comma delimited format used in spreadsheet applications
http://www.bom.gov.au/fwo/IDD60901/IDD60901.94120.axf

JavaScript Object Notation format (JSON) in row-major order
http://www.bom.gov.au/fwo/IDD60901/IDD60901.94120.json

Data quality

Most of these data are generated automatically and are frequently updated. Quality checks on data are not normally performed. It is possible for incorrect values to appear. Refer to information at About Latest Weather Observations and please check the disclaimer before using these data.